Portada
METAR-TAF:

METAR-TAF

Aeropuertos :

Ciudad de Kuwait, Kuwait

Aeropuerto Internacional de Kuwait

latitud: 29-13N, longitud: 047-59E, altitud: 55 m

Observación

El informe se hizo hace 7 minutos, a las 02:00 UTC
Viento 9 kt del suroeste
Temperatura 30°C
Humedad 31%
Presión 1005 hPa
Visibilidad: 1500 m
(leve) calima

METAR: OKBK 230200Z 22009KT 1500 -HZ NSC 30/11 Q1005 NOSIG

Hora: 05:07 (02:07 UTC)

Pronóstico

El informe se hizo hace 21 horas y 22 minutos, a las 04:45 UTC
Pronóstico válido del 22 a las 06 UTC al 23 a las 12 UTC
Viento 12 kt del sureste con ráfagas de 22 kt
Visibilidad: 6000 m
Temporalmente
del 22 a las 06 UTC al 22 a las 18 UTC
Visibilidad: 3000 m
Escasas nubes a una altura de 2500 ft, Cumulonimbus.
Escasas nubes a una altura de 4000 ft
Cielo nuboso a una altura de 8000 ft

TAF: OKBK 220445Z 2206/2312 14012G22KT 6000 NSC TEMPO 2206/2218 3000 TSRA/BLDU FEW025CB FEW040 BKN080

Observaciones y pronósticos meteorológicos de más de 4000 aeropuertos (mensajes METAR y TAF).

Los puntos amarillos y rojos representan las estaciones disponibles.

Ponga el ratón en el punto deseado para ver el nombre de la estación.

Haga clic para ver las observaciones y los pronósticos meteorológicos.

Para cambiar el mapa : haga clic en los botones verdes con una cruz de color negro para hacer un zoom, en el botón verde con un guión para alejar o en las flechas verdes para mapas adyacentes.


METAR-TAF: